Time;durP1;ratioP1;P1;durP2;ratioP2;P2;SDS_P1;SDS_P2;PMS_P1;PMS_P2;Temp;Humidity;BMP_temperature;BMP_pressure;BME280_temperature;BME280_humidity;BME280_pressure;Samples;Min_cycle;Max_cycle;Signal;HPM_P1;HPM_P2
2023/06/25 00:00:34;;;;;;;2.55;0.90;;;;;;;18.52;61.45;101776.59;6087611;23;20595;-75
2023/06/25 00:03:02;;;;;;;1.98;1.20;;;;;;;18.48;61.40;101777.66;6075080;23;20030;-74
2023/06/25 00:05:29;;;;;;;6.07;1.45;;;;;;;18.45;61.38;101784.84;6090606;23;20033;-75
2023/06/25 00:07:56;;;;;;;1.60;1.02;;;;;;;18.40;61.52;101777.91;6091952;23;20022;-74
2023/06/25 00:10:23;;;;;;;1.95;1.05;;;;;;;18.36;61.75;101775.44;6090394;23;20022;-74
2023/06/25 00:12:50;;;;;;;1.92;1.20;;;;;;;18.35;61.76;101784.28;6091838;23;20028;-73
2023/06/25 00:15:17;;;;;;;1.88;0.85;;;;;;;18.32;61.55;101792.31;6092107;23;20033;-75
2023/06/25 00:17:47;;;;;;;1.48;1.10;;;;;;;18.28;61.93;101788.94;6088068;23;20102;-74
2023/06/25 00:20:16;;;;;;;2.88;0.90;;;;;;;18.24;61.93;101787.28;6091050;23;20082;-74
2023/06/25 00:22:43;;;;;;;1.80;1.38;;;;;;;18.20;61.88;101797.13;6091710;23;20030;-74
2023/06/25 00:25:10;;;;;;;4.57;1.33;;;;;;;18.17;61.94;101799.00;6092051;23;20480;-75
2023/06/25 00:27:37;;;;;;;4.80;1.20;;;;;;;18.13;62.25;101795.59;6092131;23;20023;-74
2023/06/25 00:30:04;;;;;;;1.15;1.05;;;;;;;18.11;62.45;101796.56;6092595;23;20026;-75
2023/06/25 00:32:31;;;;;;;2.42;1.27;;;;;;;18.07;62.41;101805.50;6091506;23;20019;-75
2023/06/25 00:34:59;;;;;;;3.65;1.15;;;;;;;18.01;62.21;101790.72;6092069;23;20022;-74
2023/06/25 00:37:27;;;;;;;1.73;1.58;;;;;;;18.04;62.89;101797.69;6092456;23;20426;-75
2023/06/25 00:39:54;;;;;;;1.70;1.20;;;;;;;18.01;63.00;101796.00;6091668;23;20028;-75
2023/06/25 00:42:21;;;;;;;6.72;1.83;;;;;;;18.00;63.34;101802.22;6090401;23;20029;-75
2023/06/25 00:44:48;;;;;;;2.85;1.20;;;;;;;17.99;63.44;101803.13;6091478;23;20028;-76
2023/06/25 00:47:17;;;;;;;1.83;1.05;;;;;;;17.97;63.24;101802.31;6091690;23;20344;-74
2023/06/25 00:49:45;;;;;;;4.47;1.85;;;;;;;17.93;63.21;101787.44;6092387;23;20555;-75
2023/06/25 00:52:14;;;;;;;2.38;1.33;;;;;;;17.91;63.23;101803.38;6092755;23;20351;-76
2023/06/25 00:54:44;;;;;;;4.03;1.23;;;;;;;17.89;63.26;101796.41;6092211;23;20032;-75
2023/06/25 00:57:11;;;;;;;2.63;1.27;;;;;;;17.83;63.01;101794.84;6092624;23;20025;-75
2023/06/25 00:59:41;;;;;;;2.45;1.30;;;;;;;17.82;63.20;101800.19;6090082;23;20027;-75
2023/06/25 01:02:18;;;;;;;5.40;1.20;;;;;;;17.79;63.31;101810.81;6092477;23;20094;-76
2023/06/25 01:04:57;;;;;;;2.30;0.95;;;;;;;17.75;63.17;101805.59;6092558;23;20456;-75
2023/06/25 01:07:26;;;;;;;2.78;1.25;;;;;;;17.73;63.01;101809.22;6092298;23;20022;-75
2023/06/25 01:09:57;;;;;;;2.80;1.30;;;;;;;17.69;63.47;101800.53;6091386;23;20384;-75
2023/06/25 01:12:24;;;;;;;2.92;1.15;;;;;;;17.66;63.31;101808.56;6091370;23;20098;-74
2023/06/25 01:14:50;;;;;;;3.08;1.00;;;;;;;17.64;63.25;101802.44;6092201;23;20027;-75
2023/06/25 01:17:18;;;;;;;5.20;1.48;;;;;;;17.62;63.62;101806.94;6092679;23;20545;-76
2023/06/25 01:19:45;;;;;;;1.55;1.35;;;;;;;17.59;63.57;101808.78;6092230;23;20121;-74
2023/06/25 01:22:14;;;;;;;1.73;1.17;;;;;;;17.56;63.50;101807.13;6090919;23;20023;-74
2023/06/25 01:24:44;;;;;;;1.98;1.30;;;;;;;17.54;63.58;101804.53;6091268;23;20023;-75
2023/06/25 01:27:12;;;;;;;1.58;1.05;;;;;;;17.51;63.69;101794.06;6089550;23;20018;-75
2023/06/25 01:29:39;;;;;;;4.18;1.15;;;;;;;17.48;63.49;101799.44;6092528;23;20048;-74
2023/06/25 01:32:07;;;;;;;1.70;1.08;;;;;;;17.46;63.85;101795.97;6089869;23;20027;-74
2023/06/25 01:34:34;;;;;;;2.03;1.42;;;;;;;17.45;63.86;101801.31;6089799;23;20023;-75
2023/06/25 01:37:02;;;;;;;1.48;1.30;;;;;;;17.42;63.75;101796.97;6091009;23;20118;-75
2023/06/25 01:39:29;;;;;;;4.32;1.13;;;;;;;17.41;63.83;101810.22;6088423;23;20033;-75
2023/06/25 01:41:57;;;;;;;1.65;1.20;;;;;;;17.37;63.90;101809.47;6091001;23;20027;-74
2023/06/25 01:44:28;;;;;;;2.10;0.98;;;;;;;17.35;64.03;101810.41;6092296;23;20083;-74
2023/06/25 01:46:55;;;;;;;1.48;1.30;;;;;;;17.31;64.04;101805.22;6090372;23;20077;-74
2023/06/25 01:49:22;;;;;;;2.55;1.38;;;;;;;17.32;64.22;101816.66;6092635;23;20032;-74
2023/06/25 01:51:49;;;;;;;1.63;1.30;;;;;;;17.30;64.17;101814.06;6092788;23;20456;-74
2023/06/25 01:54:16;;;;;;;2.40;1.60;;;;;;;17.29;64.51;101812.31;6091231;23;20028;-74
2023/06/25 01:56:43;;;;;;;1.85;1.10;;;;;;;17.28;64.67;101815.03;6091315;23;20101;-74
2023/06/25 01:59:13;;;;;;;3.95;1.10;;;;;;;17.27;64.73;101814.13;6091649;23;20023;-74
2023/06/25 02:01:40;;;;;;;2.13;1.42;;;;;;;17.25;64.64;101810.69;6090304;23;20032;-74
2023/06/25 02:04:07;;;;;;;2.22;1.23;;;;;;;17.24;64.54;101808.09;6087558;23;20028;-74
2023/06/25 02:06:34;;;;;;;4.20;1.15;;;;;;;17.23;64.68;101819.56;6088793;23;20032;-74
2023/06/25 02:09:01;;;;;;;2.78;1.67;;;;;;;17.19;64.80;101810.88;6091938;23;20094;-74
2023/06/25 02:11:28;;;;;;;3.47;1.67;;;;;;;17.15;64.82;101805.72;6089407;23;20133;-74
2023/06/25 02:13:55;;;;;;;1.98;1.67;;;;;;;17.11;64.89;101802.31;6084823;23;20076;-74
2023/06/25 02:16:23;;;;;;;2.95;1.17;;;;;;;17.11;65.18;101799.69;6090525;23;20033;-74
2023/06/25 02:18:52;;;;;;;2.42;1.50;;;;;;;17.08;65.01;101802.41;6090966;23;20121;-74
2023/06/25 02:21:19;;;;;;;1.85;1.30;;;;;;;17.05;65.15;101802.50;6091726;23;20093;-74
2023/06/25 02:23:46;;;;;;;2.15;1.48;;;;;;;17.02;65.39;101802.59;6088721;23;20483;-74
2023/06/25 02:26:13;;;;;;;2.10;1.35;;;;;;;17.01;65.40;101806.13;6088432;23;20627;-74
2023/06/25 02:28:40;;;;;;;2.10;1.23;;;;;;;17.00;65.71;101804.41;6090980;23;20101;-72
2023/06/25 02:31:07;;;;;;;2.10;1.52;;;;;;;17.00;65.75;101799.13;6083785;23;20026;-77
2023/06/25 02:33:36;;;;;;;5.25;1.35;;;;;;;17.00;65.88;101799.13;6083835;23;20117;-73
2023/06/25 02:36:03;;;;;;;4.88;1.55;;;;;;;17.01;66.13;101795.56;6091387;23;20113;-76
2023/06/25 02:38:30;;;;;;;1.42;1.33;;;;;;;16.95;65.83;101786.06;6091334;23;20479;-75
2023/06/25 02:40:57;;;;;;;4.30;2.10;;;;;;;17.01;66.15;101785.88;6091889;23;20027;-76
2023/06/25 02:43:24;;;;;;;2.65;1.23;;;;;;;16.95;66.22;101783.41;6091648;23;20097;-76
2023/06/25 02:45:51;;;;;;;1.63;1.48;;;;;;;17.04;66.40;101788.41;6090729;23;20026;-76
2023/06/25 02:48:18;;;;;;;3.05;1.45;;;;;;;17.04;66.17;101791.06;6091508;23;20018;-77
2023/06/25 02:50:46;;;;;;;2.30;1.52;;;;;;;17.06;66.62;101791.03;6093150;23;20030;-76
2023/06/25 02:53:13;;;;;;;1.60;1.50;;;;;;;17.06;66.46;101789.25;6092989;23;20023;-76
2023/06/25 02:55:40;;;;;;;2.15;1.60;;;;;;;17.08;66.65;101794.50;6092361;23;20027;-75
2023/06/25 02:58:07;;;;;;;2.17;1.58;;;;;;;17.07;66.58;101796.25;6091249;23;20534;-76
2023/06/25 03:00:34;;;;;;;1.85;1.38;;;;;;;17.10;66.60;101795.28;6092290;23;20019;-77
2023/06/25 03:03:01;;;;;;;3.30;1.52;;;;;;;17.11;66.62;101790.91;6092329;23;20026;-76
2023/06/25 03:05:28;;;;;;;2.38;1.33;;;;;;;17.10;66.84;101787.38;6091810;23;20340;-76
2023/06/25 03:07:58;;;;;;;3.28;1.65;;;;;;;17.11;67.10;101783.84;6092448;23;20117;-76
2023/06/25 03:10:29;;;;;;;1.35;1.25;;;;;;;17.12;66.96;101777.63;6090247;23;20082;-76
2023/06/25 03:12:57;;;;;;;3.33;1.58;;;;;;;17.15;67.08;101787.25;6091093;23;20030;-76
2023/06/25 03:15:24;;;;;;;1.80;1.52;;;;;;;17.14;67.19;101789.03;6091838;23;20022;-76
2023/06/25 03:17:51;;;;;;;3.47;1.23;;;;;;;17.16;67.44;101789.84;6091751;23;20028;-76
2023/06/25 03:20:18;;;;;;;1.65;1.50;;;;;;;17.18;67.38;101782.72;6090441;23;20033;-75
2023/06/25 03:22:45;;;;;;;2.30;1.45;;;;;;;17.20;67.50;101793.25;6091743;23;20022;-76
2023/06/25 03:25:13;;;;;;;4.03;2.17;;;;;;;17.21;67.73;101793.19;6090974;23;20518;-76
2023/06/25 03:27:40;;;;;;;3.25;2.00;;;;;;;17.22;67.88;101787.03;6091093;23;20019;-76
2023/06/25 03:30:08;;;;;;;2.00;1.70;;;;;;;17.24;67.89;101789.59;6091658;23;20784;-76
2023/06/25 03:32:35;;;;;;;2.83;1.50;;;;;;;17.24;67.75;101790.47;6087932;23;20464;-76
2023/06/25 03:35:02;;;;;;;1.98;1.80;;;;;;;17.26;67.79;101791.28;6091153;23;20101;-77
2023/06/25 03:37:29;;;;;;;2.42;2.03;;;;;;;17.27;68.31;101793.00;6090315;23;20034;-75
2023/06/25 03:39:56;;;;;;;3.35;1.88;;;;;;;17.30;68.60;101792.94;6091973;23;20033;-76
2023/06/25 03:42:24;;;;;;;3.95;1.60;;;;;;;17.34;68.72;101804.28;6092247;23;20023;-76
2023/06/25 03:44:53;;;;;;;3.97;1.83;;;;;;;17.37;68.97;101808.59;6094301;23;20044;-77
2023/06/25 03:47:20;;;;;;;3.78;2.15;;;;;;;17.41;69.02;101811.09;6094933;23;20350;-76
2023/06/25 03:49:47;;;;;;;5.03;2.13;;;;;;;17.45;69.14;101806.59;6094404;23;20026;-77
2023/06/25 03:52:14;;;;;;;1.50;1.40;;;;;;;17.49;69.24;101813.50;6093910;23;20028;-77
2023/06/25 03:54:41;;;;;;;2.65;1.73;;;;;;;17.54;69.39;101811.59;6095616;23;20022;-76
2023/06/25 03:57:08;;;;;;;4.22;1.92;;;;;;;17.59;69.58;101812.31;6095318;23;20121;-77
2023/06/25 03:59:37;;;;;;;2.38;1.70;;;;;;;17.66;70.22;101805.91;6093344;23;20452;-76
2023/06/25 04:02:05;;;;;;;2.00;1.88;;;;;;;17.73;70.07;101812.75;6093955;23;20344;-76
2023/06/25 04:04:32;;;;;;;3.78;1.77;;;;;;;17.78;69.64;101807.31;6094267;23;20097;-76
2023/06/25 04:06:59;;;;;;;1.98;1.65;;;;;;;17.86;69.58;101815.88;6094025;23;20022;-76
2023/06/25 04:09:26;;;;;;;2.00;1.60;;;;;;;17.95;69.78;101817.34;6091562;23;20027;-76
2023/06/25 04:11:52;;;;;;;3.47;1.67;;;;;;;18.02;69.32;101824.19;6093795;23;20440;-76
2023/06/25 04:14:19;;;;;;;1.58;1.48;;;;;;;18.00;69.67;101798.72;6092262;23;20023;-76
2023/06/25 04:16:48;;;;;;;2.97;1.52;;;;;;;18.17;69.63;101818.38;6093834;23;20105;-76
2023/06/25 04:19:15;;;;;;;1.55;1.35;;;;;;;18.25;69.63;101815.47;6093119;23;20081;-77
2023/06/25 04:21:42;;;;;;;1.88;1.60;;;;;;;18.34;69.71;101827.53;6093056;23;20022;-77
2023/06/25 04:24:09;;;;;;;3.90;1.40;;;;;;;18.41;69.17;101827.28;6092501;23;20298;-76
2023/06/25 04:26:35;;;;;;;2.25;1.33;;;;;;;18.50;68.08;101828.75;6093999;23;20060;-77
2023/06/25 04:29:02;;;;;;;3.92;1.08;;;;;;;18.61;68.23;101828.34;6094093;23;20022;-77
2023/06/25 04:31:29;;;;;;;1.80;0.90;;;;;;;18.65;67.63;101820.25;6095318;23;20022;-77
2023/06/25 04:33:58;;;;;;;2.50;1.33;;;;;;;18.77;68.04;101826.06;6092359;23;20025;-77
2023/06/25 04:36:25;;;;;;;1.83;0.98;;;;;;;18.85;67.36;101822.22;6094813;23;20022;-77
2023/06/25 04:38:51;;;;;;;1.75;1.08;;;;;;;18.94;67.06;101826.31;6093880;23;20474;-77
2023/06/25 04:41:18;;;;;;;1.95;1.10;;;;;;;19.01;66.95;101825.16;6095733;23;20425;-77
2023/06/25 04:43:45;;;;;;;1.42;0.90;;;;;;;19.13;66.37;101830.94;6094901;23;20025;-77
2023/06/25 04:46:12;;;;;;;1.17;1.00;;;;;;;19.21;66.01;101828.84;6093918;23;20029;-78
2023/06/25 04:48:40;;;;;;;1.55;0.80;;;;;;;19.33;65.90;101839.00;6093388;23;20022;-77
2023/06/25 04:51:08;;;;;;;0.90;0.80;;;;;;;19.45;65.66;101824.41;6094439;23;20022;-77
2023/06/25 04:53:35;;;;;;;1.70;0.68;;;;;;;19.60;65.60;101838.81;6095429;23;20025;-77
2023/06/25 04:56:02;;;;;;;1.50;0.95;;;;;;;19.71;64.64;101829.56;6092830;23;20029;-77
2023/06/25 04:58:29;;;;;;;1.50;0.70;;;;;;;19.84;63.67;101827.28;6093876;23;20036;-76
2023/06/25 05:00:56;;;;;;;1.33;0.60;;;;;;;19.95;63.41;101827.72;6090858;23;20019;-77
2023/06/25 05:03:23;;;;;;;2.42;0.90;;;;;;;20.10;62.54;101830.66;6093118;23;20028;-76
2023/06/25 05:05:50;;;;;;;1.20;0.80;;;;;;;20.22;61.45;101824.84;6092784;23;20046;-76
2023/06/25 05:08:18;;;;;;;0.98;0.68;;;;;;;20.36;60.92;101827.75;6092651;23;20335;-76
2023/06/25 05:10:45;;;;;;;2.22;1.20;;;;;;;20.49;60.60;101827.22;6093122;23;20028;-76
2023/06/25 05:13:12;;;;;;;0.63;0.60;;;;;;;20.62;59.61;101823.16;6092147;23;20022;-76
2023/06/25 05:15:41;;;;;;;1.40;0.88;;;;;;;20.73;59.25;101820.91;6092471;23;20082;-76
2023/06/25 05:18:08;;;;;;;0.50;0.50;;;;;;;20.86;58.64;101824.72;6091755;23;20117;-76
2023/06/25 05:20:36;;;;;;;0.60;0.50;;;;;;;20.98;58.42;101820.66;6091847;23;20023;-76
2023/06/25 05:23:04;;;;;;;1.05;0.60;;;;;;;21.11;58.54;101805.84;6093213;23;20069;-76
2023/06/25 05:25:33;;;;;;;1.45;0.40;;;;;;;21.25;57.43;101813.19;6091734;23;20329;-77
2023/06/25 05:28:01;;;;;;;0.80;0.40;;;;;;;21.39;56.36;101809.06;6091520;23;20053;-76
2023/06/25 05:30:28;;;;;;;1.23;0.52;;;;;;;21.51;55.44;101804.00;6091226;23;20345;-76
2023/06/25 05:32:56;;;;;;;3.15;0.50;;;;;;;21.66;54.31;101810.41;6092007;23;20022;-75
2023/06/25 05:35:23;;;;;;;1.42;0.50;;;;;;;21.79;54.29;101808.84;6091483;23;20030;-76
2023/06/25 05:37:50;;;;;;;0.90;0.50;;;;;;;21.92;53.80;101808.28;6090210;23;20028;-76
2023/06/25 05:40:17;;;;;;;1.50;0.40;;;;;;;22.03;52.94;101808.59;6090370;23;20097;-76
2023/06/25 05:42:45;;;;;;;0.70;0.60;;;;;;;22.14;51.11;101803.59;6090882;23;20056;-76
2023/06/25 05:45:12;;;;;;;1.33;0.47;;;;;;;22.25;50.35;101810.19;6088233;23;20018;-76
2023/06/25 05:47:39;;;;;;;1.75;0.52;;;;;;;22.37;49.98;101806.88;6091201;23;20439;-76
2023/06/25 05:50:07;;;;;;;0.60;0.40;;;;;;;22.43;49.50;101806.59;6090222;23;20115;-76
2023/06/25 05:52:34;;;;;;;1.00;0.40;;;;;;;22.53;48.29;101810.47;6091056;23;20054;-75
2023/06/25 05:55:01;;;;;;;0.65;0.35;;;;;;;22.57;48.32;101801.41;6090728;23;20535;-75
2023/06/25 05:57:28;;;;;;;1.45;0.50;;;;;;;22.65;47.61;101804.53;6091586;23;20068;-75
2023/06/25 05:59:56;;;;;;;0.50;0.40;;;;;;;22.74;45.86;101807.63;6090963;23;20031;-76
2023/06/25 06:02:23;;;;;;;0.45;0.32;;;;;;;22.79;45.53;101806.44;6092852;23;20022;-75
2023/06/25 06:04:50;;;;;;;1.02;0.40;;;;;;;22.83;44.86;101802.69;6091899;23;20029;-75
2023/06/25 06:07:17;;;;;;;1.08;0.30;;;;;;;22.89;44.25;101799.69;6091042;23;20049;-76
2023/06/25 06:09:44;;;;;;;0.50;0.40;;;;;;;22.95;43.70;101795.88;6090593;23;20034;-77
2023/06/25 06:12:11;;;;;;;2.15;0.65;;;;;;;23.05;43.09;101806.88;6091853;23;20096;-76
2023/06/25 06:14:40;;;;;;;0.40;0.40;;;;;;;23.07;42.48;101805.84;6090495;23;20022;-75
2023/06/25 06:17:09;;;;;;;0.80;0.45;;;;;;;23.12;42.05;101800.28;6090603;23;20032;-76
2023/06/25 06:19:36;;;;;;;0.65;0.50;;;;;;;23.15;41.94;101813.44;6090741;23;20034;-76
2023/06/25 06:22:03;;;;;;;0.43;0.30;;;;;;;23.17;41.28;101803.56;6092473;23;20101;-76
2023/06/25 06:24:30;;;;;;;0.82;0.40;;;;;;;23.19;41.47;101809.63;6091186;23;20033;-75
2023/06/25 06:26:57;;;;;;;1.05;0.50;;;;;;;23.22;40.73;101811.28;6091924;23;20028;-75
2023/06/25 06:29:24;;;;;;;0.30;0.30;;;;;;;23.22;41.00;101805.94;6091439;23;20466;-75
2023/06/25 06:31:51;;;;;;;1.13;0.30;;;;;;;23.24;40.66;101807.59;6090918;23;20492;-74
2023/06/25 06:34:19;;;;;;;0.57;0.45;;;;;;;23.23;40.85;101805.88;6092275;23;20329;-75
2023/06/25 06:36:46;;;;;;;0.40;0.32;;;;;;;23.25;40.06;101808.44;6091636;23;20026;-76
2023/06/25 06:39:15;;;;;;;2.05;0.65;;;;;;;23.25;40.35;101800.44;6091678;23;20474;-76
2023/06/25 06:41:42;;;;;;;0.77;0.60;;;;;;;23.25;39.54;101804.00;6090404;23;20022;-76
2023/06/25 06:44:15;;;;;;;1.15;0.40;;;;;;;23.19;39.51;101793.66;6092324;23;20393;-75
2023/06/25 06:46:43;;;;;;;0.70;0.50;;;;;;;23.29;38.56;101810.00;6091278;23;20073;-76
2023/06/25 06:49:10;;;;;;;0.75;0.40;;;;;;;23.29;38.66;101804.69;6091203;23;20037;-75
2023/06/25 06:51:39;;;;;;;0.55;0.40;;;;;;;23.31;38.45;101797.47;6091706;23;20093;-75
2023/06/25 06:54:06;;;;;;;0.38;0.38;;;;;;;23.30;38.52;101791.25;6091795;23;20030;-75
2023/06/25 06:56:34;;;;;;;1.00;0.30;;;;;;;23.37;38.37;101797.13;6091263;23;20026;-75
2023/06/25 06:59:01;;;;;;;0.80;0.32;;;;;;;23.42;38.47;101800.34;6092475;23;20029;-74
2023/06/25 07:01:28;;;;;;;0.32;0.30;;;;;;;23.44;37.90;101809.13;6092510;23;20060;-75
2023/06/25 07:03:56;;;;;;;0.70;0.30;;;;;;;23.48;37.17;101816.03;6092608;23;20022;-75
2023/06/25 07:06:23;;;;;;;0.50;0.30;;;;;;;23.57;37.90;101810.19;6092019;23;20054;-75
2023/06/25 07:08:51;;;;;;;0.75;0.30;;;;;;;23.64;38.10;101809.81;6090265;23;20456;-76
2023/06/25 07:11:18;;;;;;;0.40;0.30;;;;;;;23.68;38.44;101814.03;6091614;23;20045;-77
2023/06/25 07:13:45;;;;;;;0.82;0.40;;;;;;;23.76;38.15;101806.47;6091819;23;20019;-76
2023/06/25 07:16:12;;;;;;;0.98;0.35;;;;;;;23.82;38.28;101803.44;6093026;23;20018;-76
2023/06/25 07:18:40;;;;;;;0.65;0.38;;;;;;;23.91;37.81;101802.94;6094595;23;20022;-76
2023/06/25 07:21:07;;;;;;;0.38;0.30;;;;;;;23.97;37.25;101796.38;6094401;23;20019;-76
2023/06/25 07:23:34;;;;;;;0.45;0.20;;;;;;;24.14;36.68;101803.41;6095102;23;20030;-76
2023/06/25 07:26:03;;;;;;;0.50;0.35;;;;;;;24.25;36.77;101790.28;6093706;23;20026;-75
2023/06/25 07:28:30;;;;;;;0.40;0.30;;;;;;;24.29;36.25;101789.13;6093939;23;20033;-75
2023/06/25 07:30:57;;;;;;;0.43;0.30;;;;;;;24.46;35.45;101789.00;6092993;23;20023;-76
2023/06/25 07:33:23;;;;;;;0.50;0.40;;;;;;;24.62;36.30;101793.41;6093728;23;20023;-76
2023/06/25 07:35:50;;;;;;;0.40;0.30;;;;;;;24.71;35.23;101786.63;6092628;23;20037;-76
2023/06/25 07:38:17;;;;;;;0.32;0.30;;;;;;;24.85;34.85;101800.84;6091676;23;20026;-76
2023/06/25 07:40:44;;;;;;;0.52;0.30;;;;;;;24.88;34.84;101779.28;6093389;23;20093;-77
2023/06/25 07:43:13;;;;;;;0.80;0.30;;;;;;;25.01;35.14;101784.69;6092743;23;20062;-76
2023/06/25 07:45:40;;;;;;;0.65;0.30;;;;;;;25.12;34.62;101790.22;6093806;23;20026;-76
2023/06/25 07:48:07;;;;;;;0.50;0.40;;;;;;;25.20;34.88;101789.78;6094080;23;20022;-75
2023/06/25 07:50:34;;;;;;;0.60;0.40;;;;;;;25.26;34.16;101789.38;6093970;23;20025;-75
2023/06/25 07:53:01;;;;;;;0.80;0.50;;;;;;;25.28;33.46;101787.47;6094219;23;20028;-76
2023/06/25 07:55:28;;;;;;;0.80;0.47;;;;;;;25.33;33.81;101790.72;6091663;23;20028;-76
2023/06/25 07:57:55;;;;;;;0.35;0.30;;;;;;;25.37;33.68;101790.50;6093203;23;20030;-76
2023/06/25 08:00:23;;;;;;;1.77;0.30;;;;;;;25.43;34.61;101806.16;6090903;23;20526;-76
2023/06/25 08:02:50;;;;;;;1.52;0.40;;;;;;;25.45;33.85;101805.09;6092099;23;20119;-75
2023/06/25 08:05:17;;;;;;;1.95;0.30;;;;;;;25.50;33.40;101799.44;6092665;23;20025;-76
2023/06/25 08:07:44;;;;;;;0.60;0.30;;;;;;;25.55;33.80;101800.84;6090565;23;20023;-76
2023/06/25 08:10:11;;;;;;;0.50;0.40;;;;;;;25.58;33.45;101794.44;6091371;23;20022;-75
2023/06/25 08:12:38;;;;;;;0.40;0.35;;;;;;;25.62;32.45;101795.13;6092415;23;20090;-76
2023/06/25 08:15:06;;;;;;;0.40;0.40;;;;;;;25.66;32.53;101788.59;6090408;23;20025;-77
2023/06/25 08:17:34;;;;;;;1.95;0.40;;;;;;;25.68;33.00;101790.22;6091451;23;20032;-76
2023/06/25 08:20:02;;;;;;;0.50;0.38;;;;;;;25.72;33.04;101794.38;6090708;23;20065;-76
2023/06/25 08:22:29;;;;;;;4.35;0.40;;;;;;;25.75;33.36;101796.00;6089461;23;20018;-76
2023/06/25 08:24:56;;;;;;;1.23;0.40;;;;;;;25.76;33.68;101782.53;6092196;23;20028;-76
2023/06/25 08:27:23;;;;;;;1.30;0.40;;;;;;;25.82;33.23;101796.47;6091102;23;20089;-75
2023/06/25 08:29:50;;;;;;;0.98;0.60;;;;;;;25.78;33.07;101783.28;6091808;23;20018;-76
2023/06/25 08:32:16;;;;;;;0.43;0.30;;;;;;;25.90;32.61;101791.47;6091289;23;20110;-75
2023/06/25 08:34:45;;;;;;;0.50;0.40;;;;;;;25.93;31.99;101792.16;6091656;23;20022;-75
2023/06/25 08:37:12;;;;;;;0.40;0.38;;;;;;;25.95;31.58;101797.38;6087363;23;20053;-76
2023/06/25 08:39:38;;;;;;;0.82;0.50;;;;;;;25.98;31.76;101789.16;6090606;23;20022;-74
2023/06/25 08:42:06;;;;;;;0.50;0.40;;;;;;;25.99;31.75;101788.19;6089707;23;20106;-73
2023/06/25 08:44:33;;;;;;;2.60;0.40;;;;;;;25.90;31.68;101772.75;6092790;23;20123;-73
2023/06/25 08:47:00;;;;;;;1.58;0.40;;;;;;;26.05;31.33;101792.28;6090268;23;20235;-74
2023/06/25 08:49:30;;;;;;;1.58;0.40;;;;;;;26.07;32.11;101785.88;6091450;23;20018;-74
2023/06/25 08:52:00;;;;;;;2.20;0.40;;;;;;;26.09;31.64;101783.91;6085563;23;20519;-72
2023/06/25 08:54:27;;;;;;;0.40;0.30;;;;;;;26.11;31.62;101790.03;6088603;23;20018;-74
2023/06/25 08:56:54;;;;;;;0.50;0.40;;;;;;;26.14;32.09;101781.78;6091389;23;20028;-74
2023/06/25 08:59:22;;;;;;;2.03;0.40;;;;;;;26.16;32.58;101779.88;6079159;23;20026;-73
2023/06/25 09:01:49;;;;;;;1.23;0.40;;;;;;;26.22;32.25;101786.63;6091496;23;20026;-74
2023/06/25 09:04:16;;;;;;;0.57;0.40;;;;;;;26.23;31.87;101780.31;6090297;23;20022;-73
2023/06/25 09:06:43;;;;;;;6.80;0.68;;;;;;;26.27;31.76;101789.88;6090464;23;20023;-73
2023/06/25 09:09:12;;;;;;;2.97;0.30;;;;;;;26.30;30.71;101780.72;6089701;23;20456;-73
2023/06/25 09:11:40;;;;;;;0.82;0.40;;;;;;;26.32;31.11;101778.81;6090352;23;20027;-73
2023/06/25 09:14:08;;;;;;;1.42;0.40;;;;;;;26.35;31.62;101773.25;6089383;23;20527;-74
2023/06/25 09:16:46;;;;;;;0.45;0.40;;;;;;;26.36;32.03;101783.88;6092058;23;20110;-73
2023/06/25 09:19:17;;;;;;;2.05;0.50;;;;;;;26.39;31.42;101769.41;6091904;23;20026;-73
2023/06/25 09:21:44;;;;;;;1.75;0.40;;;;;;;26.42;31.43;101771.88;6090824;23;20032;-73
2023/06/25 09:24:15;;;;;;;0.70;0.40;;;;;;;26.35;31.55;101754.50;6087769;23;20523;-73
2023/06/25 09:26:46;;;;;;;0.88;0.30;;;;;;;26.49;30.80;101781.19;6089503;23;20097;-73
2023/06/25 09:29:14;;;;;;;0.98;0.28;;;;;;;26.53;30.64;101787.22;6090213;23;20029;-74
2023/06/25 09:31:42;;;;;;;0.60;0.30;;;;;;;26.55;31.54;101775.41;6085091;23;20028;-74
2023/06/25 09:34:10;;;;;;;1.15;0.40;;;;;;;26.55;31.21;101769.19;6091011;23;20023;-75
2023/06/25 09:36:37;;;;;;;0.40;0.30;;;;;;;26.56;30.94;101777.16;6091682;23;20099;-75
2023/06/25 09:39:04;;;;;;;0.95;0.38;;;;;;;26.57;31.05;101767.28;6087693;23;20344;-75
2023/06/25 09:41:35;;;;;;;1.48;0.30;;;;;;;26.60;31.12;101762.56;6090847;23;20448;-74
2023/06/25 09:44:04;;;;;;;1.48;0.30;;;;;;;26.62;31.21;101763.31;6088719;23;20030;-75
2023/06/25 09:46:34;;;;;;;0.30;0.20;;;;;;;26.65;30.32;101765.78;6087771;23;20023;-76
2023/06/25 09:49:02;;;;;;;3.38;0.40;;;;;;;26.67;29.95;101763.84;6092355;23;20018;-75
2023/06/25 09:51:34;;;;;;;0.32;0.30;;;;;;;26.71;30.12;101769.84;6092486;23;20026;-75
2023/06/25 09:54:03;;;;;;;0.52;0.52;;;;;;;26.73;30.43;101764.38;6092178;23;20027;-75
2023/06/25 09:56:35;;;;;;;1.65;0.50;;;;;;;26.77;30.69;101771.22;6092835;23;20094;-75
2023/06/25 09:59:03;;;;;;;0.73;0.30;;;;;;;26.79;30.25;101766.63;6092551;23;20345;-75
2023/06/25 10:01:30;;;;;;;0.85;0.30;;;;;;;26.79;30.62;101770.16;6091737;23;20078;-75
2023/06/25 10:03:57;;;;;;;2.05;0.30;;;;;;;26.80;29.77;101771.88;6088656;23;20027;-76
2023/06/25 10:06:24;;;;;;;0.50;0.30;;;;;;;26.81;29.34;101767.34;6089894;23;20018;-76
2023/06/25 10:08:51;;;;;;;1.38;0.25;;;;;;;26.82;29.60;101767.25;6087799;23;20041;-75
2023/06/25 10:11:18;;;;;;;0.35;0.30;;;;;;;26.80;29.83;101754.94;6090399;23;20053;-74
2023/06/25 10:13:48;;;;;;;0.30;0.30;;;;;;;26.85;30.29;101755.47;6092012;23;20023;-73
2023/06/25 10:16:19;;;;;;;0.40;0.30;;;;;;;26.86;30.11;101751.81;6091539;23;20022;-74
2023/06/25 10:18:47;;;;;;;0.30;0.28;;;;;;;26.81;29.80;101748.59;6092219;23;20030;-73
2023/06/25 10:21:24;;;;;;;0.47;0.30;;;;;;;26.79;29.20;101756.75;6087319;23;20022;-72
2023/06/25 10:23:57;;;;;;;0.57;0.30;;;;;;;26.74;29.04;101752.69;6087482;23;20101;-76
2023/06/25 10:26:37;;;;;;;0.32;0.30;;;;;;;26.73;29.08;101757.19;6087527;23;20018;-74
2023/06/25 10:29:08;;;;;;;0.40;0.30;;;;;;;26.73;28.71;101759.88;6089419;23;20460;-73
2023/06/25 10:31:39;;;;;;;0.45;0.30;;;;;;;26.71;28.85;101761.81;6090108;23;20026;-73
2023/06/25 10:34:07;;;;;;;0.55;0.35;;;;;;;26.65;29.57;101757.72;6092187;23;20022;-74
2023/06/25 10:36:34;;;;;;;1.38;0.32;;;;;;;26.67;29.50;101763.84;6092080;23;20026;-74
2023/06/25 10:39:02;;;;;;;0.63;0.28;;;;;;;26.66;28.97;101763.94;6092781;23;20030;-73
2023/06/25 10:41:30;;;;;;;2.20;0.40;;;;;;;26.64;28.94;101769.44;6091717;23;20018;-74
2023/06/25 10:43:57;;;;;;;0.40;0.30;;;;;;;26.62;29.17;101759.78;6093296;23;20030;-74
2023/06/25 10:46:30;;;;;;;0.73;0.40;;;;;;;26.62;29.34;101746.38;6093034;23;20216;-73
2023/06/25 10:48:59;;;;;;;1.10;0.30;;;;;;;26.62;29.15;101754.41;6092593;23;20023;-73
2023/06/25 10:51:27;;;;;;;0.50;0.40;;;;;;;26.60;28.67;101749.16;6092711;23;20026;-74
2023/06/25 10:53:54;;;;;;;0.45;0.30;;;;;;;26.57;28.84;101749.38;6092445;23;20047;-74
2023/06/25 10:56:22;;;;;;;1.30;0.20;;;;;;;26.52;28.73;101738.13;6092252;23;20019;-73
2023/06/25 10:58:55;;;;;;;0.32;0.28;;;;;;;26.50;29.36;101732.03;6092022;23;20061;-73
2023/06/25 11:01:22;;;;;;;2.08;0.30;;;;;;;26.50;29.38;101731.13;6092700;23;20032;-74
2023/06/25 11:03:50;;;;;;;0.95;0.30;;;;;;;26.56;29.37;101745.00;6092987;23;20391;-73
2023/06/25 11:06:17;;;;;;;0.43;0.43;;;;;;;26.53;29.00;101752.41;6092857;23;20097;-73
2023/06/25 11:08:45;;;;;;;3.03;0.40;;;;;;;26.51;28.87;101747.13;6092668;23;20547;-73
2023/06/25 11:11:12;;;;;;;0.30;0.20;;;;;;;26.52;29.17;101750.66;6092547;23;20029;-73
2023/06/25 11:13:39;;;;;;;0.60;0.22;;;;;;;26.54;29.06;101751.41;6092530;23;20027;-73
2023/06/25 11:16:06;;;;;;;0.47;0.30;;;;;;;26.55;28.15;101758.47;6092968;23;20102;-73
2023/06/25 11:18:33;;;;;;;0.80;0.40;;;;;;;26.54;29.19;101751.41;6092601;23;20050;-73
2023/06/25 11:21:04;;;;;;;0.75;0.30;;;;;;;26.53;29.34;101745.22;6092483;23;20030;-73
2023/06/25 11:23:34;;;;;;;0.32;0.30;;;;;;;26.47;28.80;101750.97;6092217;23;20030;-73
2023/06/25 11:26:02;;;;;;;3.58;0.30;;;;;;;26.46;29.25;101759.97;6092445;23;20034;-73